sensor_id;sensor_type;location;lat;lon;timestamp;P1;durP1;ratioP1;P2;durP2;ratioP2
54917;SDS011;40818;50.562;7.454;2022-11-15T00:03:21;8.18;;;3.15;;
54917;SDS011;40818;50.562;7.454;2022-11-15T00:08:47;5.93;;;2.03;;
54917;SDS011;40818;50.562;7.454;2022-11-15T00:14:09;9.77;;;2.47;;
54917;SDS011;40818;50.562;7.454;2022-11-15T00:19:31;8.00;;;2.35;;
54917;SDS011;40818;50.562;7.454;2022-11-15T00:24:56;5.93;;;1.92;;
54917;SDS011;40818;50.562;7.454;2022-11-15T00:30:18;5.05;;;1.90;;
54917;SDS011;40818;50.562;7.454;2022-11-15T00:35:40;4.50;;;1.48;;
54917;SDS011;40818;50.562;7.454;2022-11-15T00:41:05;10.75;;;1.95;;
54917;SDS011;40818;50.562;7.454;2022-11-15T00:46:28;4.35;;;1.67;;
54917;SDS011;40818;50.562;7.454;2022-11-15T00:51:51;5.68;;;1.77;;
54917;SDS011;40818;50.562;7.454;2022-11-15T00:57:15;3.90;;;1.55;;
54917;SDS011;40818;50.562;7.454;2022-11-15T01:02:37;4.88;;;1.58;;
54917;SDS011;40818;50.562;7.454;2022-11-15T01:08:00;5.82;;;1.65;;
54917;SDS011;40818;50.562;7.454;2022-11-15T01:13:24;4.72;;;1.52;;
54917;SDS011;40818;50.562;7.454;2022-11-15T01:18:46;4.57;;;2.10;;
54917;SDS011;40818;50.562;7.454;2022-11-15T01:24:08;6.30;;;2.03;;
54917;SDS011;40818;50.562;7.454;2022-11-15T01:29:36;6.93;;;2.03;;
54917;SDS011;40818;50.562;7.454;2022-11-15T01:34:58;9.23;;;1.92;;
54917;SDS011;40818;50.562;7.454;2022-11-15T01:40:20;8.50;;;1.42;;
54917;SDS011;40818;50.562;7.454;2022-11-15T01:45:45;5.30;;;1.60;;
54917;SDS011;40818;50.562;7.454;2022-11-15T01:51:11;4.43;;;1.45;;
54917;SDS011;40818;50.562;7.454;2022-11-15T01:56:36;5.90;;;1.40;;
54917;SDS011;40818;50.562;7.454;2022-11-15T02:02:06;4.78;;;1.48;;
54917;SDS011;40818;50.562;7.454;2022-11-15T02:07:28;5.55;;;1.70;;
54917;SDS011;40818;50.562;7.454;2022-11-15T02:12:52;5.15;;;2.47;;
54917;SDS011;40818;50.562;7.454;2022-11-15T02:18:21;4.63;;;2.55;;
54917;SDS011;40818;50.562;7.454;2022-11-15T02:24:00;7.28;;;2.63;;
54917;SDS011;40818;50.562;7.454;2022-11-15T02:29:47;5.28;;;2.47;;
54917;SDS011;40818;50.562;7.454;2022-11-15T02:35:29;10.32;;;2.30;;
54917;SDS011;40818;50.562;7.454;2022-11-15T02:40:59;5.80;;;2.08;;
54917;SDS011;40818;50.562;7.454;2022-11-15T02:46:27;4.10;;;1.60;;
54917;SDS011;40818;50.562;7.454;2022-11-15T02:52:13;6.75;;;2.35;;
54917;SDS011;40818;50.562;7.454;2022-11-15T02:57:39;4.85;;;2.17;;
54917;SDS011;40818;50.562;7.454;2022-11-15T03:03:16;4.22;;;1.77;;
54917;SDS011;40818;50.562;7.454;2022-11-15T03:08:55;7.63;;;1.45;;
54917;SDS011;40818;50.562;7.454;2022-11-15T03:14:25;6.10;;;1.58;;
54917;SDS011;40818;50.562;7.454;2022-11-15T03:19:55;6.88;;;1.50;;
54917;SDS011;40818;50.562;7.454;2022-11-15T03:25:23;9.40;;;1.80;;
54917;SDS011;40818;50.562;7.454;2022-11-15T03:30:47;4.47;;;1.92;;
54917;SDS011;40818;50.562;7.454;2022-11-15T03:36:11;6.55;;;2.05;;
54917;SDS011;40818;50.562;7.454;2022-11-15T03:41:37;4.50;;;1.67;;
54917;SDS011;40818;50.562;7.454;2022-11-15T03:47:06;3.78;;;1.70;;
54917;SDS011;40818;50.562;7.454;2022-11-15T03:52:31;5.22;;;1.50;;
54917;SDS011;40818;50.562;7.454;2022-11-15T03:57:59;3.30;;;1.33;;
54917;SDS011;40818;50.562;7.454;2022-11-15T04:03:22;8.00;;;1.52;;
54917;SDS011;40818;50.562;7.454;2022-11-15T04:08:44;4.70;;;1.40;;
54917;SDS011;40818;50.562;7.454;2022-11-15T04:14:08;7.80;;;1.27;;
54917;SDS011;40818;50.562;7.454;2022-11-15T04:19:31;5.05;;;1.30;;
54917;SDS011;40818;50.562;7.454;2022-11-15T04:25:05;3.78;;;1.50;;
54917;SDS011;40818;50.562;7.454;2022-11-15T04:30:30;5.80;;;1.30;;
54917;SDS011;40818;50.562;7.454;2022-11-15T04:35:52;3.30;;;1.15;;
54917;SDS011;40818;50.562;7.454;2022-11-15T04:41:27;2.95;;;1.17;;
54917;SDS011;40818;50.562;7.454;2022-11-15T04:46:51;6.78;;;1.38;;
54917;SDS011;40818;50.562;7.454;2022-11-15T04:52:13;5.25;;;1.13;;
54917;SDS011;40818;50.562;7.454;2022-11-15T04:57:35;2.97;;;1.00;;
54917;SDS011;40818;50.562;7.454;2022-11-15T05:03:00;5.32;;;0.90;;
54917;SDS011;40818;50.562;7.454;2022-11-15T05:08:35;3.25;;;0.80;;
54917;SDS011;40818;50.562;7.454;2022-11-15T05:13:57;3.05;;;0.77;;
54917;SDS011;40818;50.562;7.454;2022-11-15T05:19:21;2.00;;;0.68;;
54917;SDS011;40818;50.562;7.454;2022-11-15T05:24:44;1.80;;;0.60;;
54917;SDS011;40818;50.562;7.454;2022-11-15T05:30:07;1.20;;;0.50;;
54917;SDS011;40818;50.562;7.454;2022-11-15T05:35:33;2.38;;;0.70;;
54917;SDS011;40818;50.562;7.454;2022-11-15T05:41:00;1.73;;;0.60;;
54917;SDS011;40818;50.562;7.454;2022-11-15T05:46:23;2.50;;;0.60;;
54917;SDS011;40818;50.562;7.454;2022-11-15T05:51:48;1.58;;;0.50;;
54917;SDS011;40818;50.562;7.454;2022-11-15T05:57:11;4.65;;;0.60;;
54917;SDS011;40818;50.562;7.454;2022-11-15T06:02:33;2.45;;;0.70;;
54917;SDS011;40818;50.562;7.454;2022-11-15T06:07:59;2.72;;;0.60;;
54917;SDS011;40818;50.562;7.454;2022-11-15T06:13:21;1.23;;;0.50;;
54917;SDS011;40818;50.562;7.454;2022-11-15T06:18:43;3.47;;;0.60;;
54917;SDS011;40818;50.562;7.454;2022-11-15T06:24:08;1.48;;;0.60;;
54917;SDS011;40818;50.562;7.454;2022-11-15T06:29:30;1.23;;;0.55;;
54917;SDS011;40818;50.562;7.454;2022-11-15T06:34:51;1.17;;;0.40;;
54917;SDS011;40818;50.562;7.454;2022-11-15T06:40:16;3.20;;;0.82;;
54917;SDS011;40818;50.562;7.454;2022-11-15T06:45:39;2.85;;;0.40;;
54917;SDS011;40818;50.562;7.454;2022-11-15T06:51:01;2.92;;;0.50;;
54917;SDS011;40818;50.562;7.454;2022-11-15T06:56:27;1.88;;;0.43;;
54917;SDS011;40818;50.562;7.454;2022-11-15T07:01:49;1.80;;;0.60;;
54917;SDS011;40818;50.562;7.454;2022-11-15T07:07:11;2.92;;;0.60;;
54917;SDS011;40818;50.562;7.454;2022-11-15T07:12:35;2.00;;;0.70;;
54917;SDS011;40818;50.562;7.454;2022-11-15T07:17:59;4.20;;;0.60;;
54917;SDS011;40818;50.562;7.454;2022-11-15T07:23:22;2.58;;;0.70;;
54917;SDS011;40818;50.562;7.454;2022-11-15T07:28:47;1.58;;;0.65;;
54917;SDS011;40818;50.562;7.454;2022-11-15T07:34:09;1.80;;;0.70;;
54917;SDS011;40818;50.562;7.454;2022-11-15T07:39:31;2.90;;;0.88;;
54917;SDS011;40818;50.562;7.454;2022-11-15T07:44:56;2.60;;;0.60;;
54917;SDS011;40818;50.562;7.454;2022-11-15T07:50:18;3.05;;;1.20;;
54917;SDS011;40818;50.562;7.454;2022-11-15T07:55:40;2.50;;;0.80;;
54917;SDS011;40818;50.562;7.454;2022-11-15T08:01:06;2.78;;;0.70;;
54917;SDS011;40818;50.562;7.454;2022-11-15T08:06:28;2.80;;;0.80;;
54917;SDS011;40818;50.562;7.454;2022-11-15T08:11:51;1.80;;;0.70;;
54917;SDS011;40818;50.562;7.454;2022-11-15T08:17:16;1.63;;;0.60;;
54917;SDS011;40818;50.562;7.454;2022-11-15T08:22:38;3.08;;;0.50;;
54917;SDS011;40818;50.562;7.454;2022-11-15T08:28:00;1.80;;;0.43;;
54917;SDS011;40818;50.562;7.454;2022-11-15T08:33:27;1.55;;;0.40;;
54917;SDS011;40818;50.562;7.454;2022-11-15T08:38:49;4.18;;;0.68;;
54917;SDS011;40818;50.562;7.454;2022-11-15T08:44:12;1.38;;;0.40;;
54917;SDS011;40818;50.562;7.454;2022-11-15T08:49:36;2.05;;;0.43;;
54917;SDS011;40818;50.562;7.454;2022-11-15T08:54:59;1.63;;;0.30;;
54917;SDS011;40818;50.562;7.454;2022-11-15T09:00:21;2.92;;;0.60;;
54917;SDS011;40818;50.562;7.454;2022-11-15T09:05:45;2.45;;;0.40;;
54917;SDS011;40818;50.562;7.454;2022-11-15T09:11:09;1.83;;;0.60;;
54917;SDS011;40818;50.562;7.454;2022-11-15T09:16:31;3.67;;;0.70;;
54917;SDS011;40818;50.562;7.454;2022-11-15T09:21:56;1.58;;;0.60;;
54917;SDS011;40818;50.562;7.454;2022-11-15T09:27:18;3.92;;;0.80;;
54917;SDS011;40818;50.562;7.454;2022-11-15T09:32:40;2.80;;;0.50;;
54917;SDS011;40818;50.562;7.454;2022-11-15T09:38:05;1.30;;;0.40;;
54917;SDS011;40818;50.562;7.454;2022-11-15T09:43:31;2.13;;;0.50;;
54917;SDS011;40818;50.562;7.454;2022-11-15T09:48:57;1.73;;;0.50;;
54917;SDS011;40818;50.562;7.454;2022-11-15T09:54:38;2.03;;;0.50;;
54917;SDS011;40818;50.562;7.454;2022-11-15T09:59:47;4.78;;;0.50;;
54917;SDS011;40818;50.562;7.454;2022-11-15T10:05:16;4.05;;;0.30;;
54917;SDS011;40818;50.562;7.454;2022-11-15T10:10:27;0.70;;;0.20;;
54917;SDS011;40818;50.562;7.454;2022-11-15T10:15:35;1.00;;;0.20;;
54917;SDS011;40818;50.562;7.454;2022-11-15T10:20:42;3.30;;;0.20;;
54917;SDS011;40818;50.562;7.454;2022-11-15T10:25:53;2.85;;;0.30;;
54917;SDS011;40818;50.562;7.454;2022-11-15T10:31:00;1.02;;;0.35;;
54917;SDS011;40818;50.562;7.454;2022-11-15T10:36:14;1.05;;;0.30;;
54917;SDS011;40818;50.562;7.454;2022-11-15T10:41:22;1.23;;;0.30;;
54917;SDS011;40818;50.562;7.454;2022-11-15T10:46:35;1.10;;;0.40;;
54917;SDS011;40818;50.562;7.454;2022-11-15T10:51:41;2.45;;;0.40;;
54917;SDS011;40818;50.562;7.454;2022-11-15T10:56:51;1.95;;;0.35;;
54917;SDS011;40818;50.562;7.454;2022-11-15T11:01:57;2.30;;;0.40;;
54917;SDS011;40818;50.562;7.454;2022-11-15T11:07:00;1.60;;;0.40;;
54917;SDS011;40818;50.562;7.454;2022-11-15T11:12:09;1.58;;;0.40;;
54917;SDS011;40818;50.562;7.454;2022-11-15T11:17:16;3.47;;;0.40;;
54917;SDS011;40818;50.562;7.454;2022-11-15T11:22:32;1.75;;;0.40;;
54917;SDS011;40818;50.562;7.454;2022-11-15T11:27:51;2.00;;;0.50;;
54917;SDS011;40818;50.562;7.454;2022-11-15T11:33:05;2.38;;;0.50;;
54917;SDS011;40818;50.562;7.454;2022-11-15T11:38:19;2.15;;;0.50;;
54917;SDS011;40818;50.562;7.454;2022-11-15T11:43:48;1.70;;;0.50;;
54917;SDS011;40818;50.562;7.454;2022-11-15T11:49:00;4.43;;;0.40;;
54917;SDS011;40818;50.562;7.454;2022-11-15T11:54:12;1.80;;;0.40;;
54917;SDS011;40818;50.562;7.454;2022-11-15T11:59:25;3.10;;;0.50;;
54917;SDS011;40818;50.562;7.454;2022-11-15T12:04:38;1.17;;;0.30;;
54917;SDS011;40818;50.562;7.454;2022-11-15T12:09:48;1.20;;;0.40;;
54917;SDS011;40818;50.562;7.454;2022-11-15T12:15:00;2.92;;;0.30;;
54917;SDS011;40818;50.562;7.454;2022-11-15T12:20:13;2.80;;;0.30;;
54917;SDS011;40818;50.562;7.454;2022-11-15T12:25:20;2.92;;;0.40;;
54917;SDS011;40818;50.562;7.454;2022-11-15T12:30:30;1.38;;;0.30;;
54917;SDS011;40818;50.562;7.454;2022-11-15T12:35:45;1.38;;;0.30;;
54917;SDS011;40818;50.562;7.454;2022-11-15T12:41:14;2.88;;;0.30;;
54917;SDS011;40818;50.562;7.454;2022-11-15T12:46:23;1.55;;;0.30;;
54917;SDS011;40818;50.562;7.454;2022-11-15T13:02:48;1.02;;;0.20;;
54917;SDS011;40818;50.562;7.454;2022-11-15T13:07:55;1.92;;;0.32;;
54917;SDS011;40818;50.562;7.454;2022-11-15T13:13:02;2.28;;;0.30;;
54917;SDS011;40818;50.562;7.454;2022-11-15T13:23:56;4.00;;;0.25;;
54917;SDS011;40818;50.562;7.454;2022-11-15T13:29:00;2.95;;;0.28;;
54917;SDS011;40818;50.562;7.454;2022-11-15T13:34:19;2.05;;;0.30;;
54917;SDS011;40818;50.562;7.454;2022-11-15T13:39:33;1.80;;;0.50;;
54917;SDS011;40818;50.562;7.454;2022-11-15T13:44:38;1.25;;;0.20;;
54917;SDS011;40818;50.562;7.454;2022-11-15T13:49:42;1.20;;;0.38;;
54917;SDS011;40818;50.562;7.454;2022-11-15T13:54:50;1.40;;;0.30;;
54917;SDS011;40818;50.562;7.454;2022-11-15T14:00:01;0.90;;;0.30;;
54917;SDS011;40818;50.562;7.454;2022-11-15T14:05:14;2.13;;;0.47;;
54917;SDS011;40818;50.562;7.454;2022-11-15T14:10:27;1.13;;;0.22;;
54917;SDS011;40818;50.562;7.454;2022-11-15T14:15:33;2.00;;;0.20;;
54917;SDS011;40818;50.562;7.454;2022-11-15T14:20:38;0.70;;;0.20;;
54917;SDS011;40818;50.562;7.454;2022-11-15T14:25:51;0.73;;;0.20;;
54917;SDS011;40818;50.562;7.454;2022-11-15T14:30:56;0.88;;;0.20;;
54917;SDS011;40818;50.562;7.454;2022-11-15T14:36:02;2.90;;;0.20;;
54917;SDS011;40818;50.562;7.454;2022-11-15T14:41:12;1.35;;;0.20;;
54917;SDS011;40818;50.562;7.454;2022-11-15T14:46:21;1.90;;;0.30;;
54917;SDS011;40818;50.562;7.454;2022-11-15T14:51:24;0.98;;;0.30;;
54917;SDS011;40818;50.562;7.454;2022-11-15T14:56:31;2.83;;;0.40;;
54917;SDS011;40818;50.562;7.454;2022-11-15T15:01:35;2.05;;;0.40;;
54917;SDS011;40818;50.562;7.454;2022-11-15T15:06:38;0.98;;;0.20;;
54917;SDS011;40818;50.562;7.454;2022-11-15T15:11:44;1.08;;;0.40;;
54917;SDS011;40818;50.562;7.454;2022-11-15T15:16:48;1.45;;;0.30;;
54917;SDS011;40818;50.562;7.454;2022-11-15T15:21:51;3.75;;;0.70;;
54917;SDS011;40818;50.562;7.454;2022-11-15T15:26:57;2.20;;;0.40;;
54917;SDS011;40818;50.562;7.454;2022-11-15T15:32:00;1.13;;;0.30;;
54917;SDS011;40818;50.562;7.454;2022-11-15T15:37:07;2.17;;;0.30;;
54917;SDS011;40818;50.562;7.454;2022-11-15T15:42:14;1.08;;;0.30;;
54917;SDS011;40818;50.562;7.454;2022-11-15T15:47:19;1.50;;;0.20;;
54917;SDS011;40818;50.562;7.454;2022-11-15T15:52:23;0.73;;;0.20;;
54917;SDS011;40818;50.562;7.454;2022-11-15T15:57:29;2.55;;;0.30;;
54917;SDS011;40818;50.562;7.454;2022-11-15T16:02:33;1.90;;;0.30;;
54917;SDS011;40818;50.562;7.454;2022-11-15T16:07:36;3.38;;;0.60;;
54917;SDS011;40818;50.562;7.454;2022-11-15T16:12:45;1.67;;;0.25;;
54917;SDS011;40818;50.562;7.454;2022-11-15T16:17:50;2.17;;;0.45;;
54917;SDS011;40818;50.562;7.454;2022-11-15T16:22:55;2.58;;;0.45;;
54917;SDS011;40818;50.562;7.454;2022-11-15T16:28:01;2.83;;;0.30;;
54917;SDS011;40818;50.562;7.454;2022-11-15T16:33:05;0.80;;;0.30;;
54917;SDS011;40818;50.562;7.454;2022-11-15T16:38:12;1.55;;;0.30;;
54917;SDS011;40818;50.562;7.454;2022-11-15T16:43:20;1.30;;;0.30;;
54917;SDS011;40818;50.562;7.454;2022-11-15T16:48:24;1.67;;;0.30;;
54917;SDS011;40818;50.562;7.454;2022-11-15T16:53:28;1.30;;;0.40;;
54917;SDS011;40818;50.562;7.454;2022-11-15T16:58:35;2.88;;;0.40;;
54917;SDS011;40818;50.562;7.454;2022-11-15T17:03:39;1.20;;;0.30;;
54917;SDS011;40818;50.562;7.454;2022-11-15T17:08:43;1.98;;;0.40;;
54917;SDS011;40818;50.562;7.454;2022-11-15T17:13:50;3.53;;;0.40;;
54917;SDS011;40818;50.562;7.454;2022-11-15T17:18:53;2.80;;;0.40;;
54917;SDS011;40818;50.562;7.454;2022-11-15T17:23:57;1.40;;;0.50;;
54917;SDS011;40818;50.562;7.454;2022-11-15T17:29:04;1.13;;;0.38;;
54917;SDS011;40818;50.562;7.454;2022-11-15T17:34:08;1.92;;;0.40;;
54917;SDS011;40818;50.562;7.454;2022-11-15T17:39:12;3.33;;;0.50;;
54917;SDS011;40818;50.562;7.454;2022-11-15T17:44:20;1.42;;;0.40;;
54917;SDS011;40818;50.562;7.454;2022-11-15T17:49:23;1.38;;;0.43;;
54917;SDS011;40818;50.562;7.454;2022-11-15T17:54:27;2.55;;;0.50;;
54917;SDS011;40818;50.562;7.454;2022-11-15T17:59:33;1.65;;;0.50;;
54917;SDS011;40818;50.562;7.454;2022-11-15T18:04:36;3.90;;;0.50;;
54917;SDS011;40818;50.562;7.454;2022-11-15T18:09:40;5.30;;;0.50;;
54917;SDS011;40818;50.562;7.454;2022-11-15T18:14:46;2.25;;;0.40;;
54917;SDS011;40818;50.562;7.454;2022-11-15T18:19:50;1.55;;;0.50;;
54917;SDS011;40818;50.562;7.454;2022-11-15T18:24:53;1.20;;;0.50;;
54917;SDS011;40818;50.562;7.454;2022-11-15T18:29:59;5.00;;;0.50;;
54917;SDS011;40818;50.562;7.454;2022-11-15T18:35:03;6.10;;;0.52;;
54917;SDS011;40818;50.562;7.454;2022-11-15T18:40:08;9.88;;;0.68;;
54917;SDS011;40818;50.562;7.454;2022-11-15T18:45:15;4.53;;;0.60;;
54917;SDS011;40818;50.562;7.454;2022-11-15T18:50:18;3.45;;;0.60;;
54917;SDS011;40818;50.562;7.454;2022-11-15T18:55:22;2.83;;;0.60;;
54917;SDS011;40818;50.562;7.454;2022-11-15T19:00:28;2.50;;;0.60;;
54917;SDS011;40818;50.562;7.454;2022-11-15T19:05:31;2.00;;;0.60;;
54917;SDS011;40818;50.562;7.454;2022-11-15T19:10:35;2.40;;;0.80;;
54917;SDS011;40818;50.562;7.454;2022-11-15T19:15:41;1.95;;;0.70;;
54917;SDS011;40818;50.562;7.454;2022-11-15T19:20:44;4.10;;;0.80;;
54917;SDS011;40818;50.562;7.454;2022-11-15T19:25:52;5.03;;;0.70;;
54917;SDS011;40818;50.562;7.454;2022-11-15T19:31:10;2.92;;;0.80;;
54917;SDS011;40818;50.562;7.454;2022-11-15T19:36:15;4.95;;;0.70;;
54917;SDS011;40818;50.562;7.454;2022-11-15T19:41:22;1.80;;;0.80;;
54917;SDS011;40818;50.562;7.454;2022-11-15T19:46:29;2.05;;;0.70;;
54917;SDS011;40818;50.562;7.454;2022-11-15T19:51:32;1.85;;;0.60;;
54917;SDS011;40818;50.562;7.454;2022-11-15T19:56:36;2.60;;;0.70;;
54917;SDS011;40818;50.562;7.454;2022-11-15T20:01:43;2.22;;;0.75;;
54917;SDS011;40818;50.562;7.454;2022-11-15T20:06:47;3.05;;;0.60;;
54917;SDS011;40818;50.562;7.454;2022-11-15T20:11:50;2.83;;;0.57;;
54917;SDS011;40818;50.562;7.454;2022-11-15T20:16:56;1.80;;;0.85;;
54917;SDS011;40818;50.562;7.454;2022-11-15T20:22:00;2.50;;;0.50;;
54917;SDS011;40818;50.562;7.454;2022-11-15T20:27:03;1.88;;;0.52;;
54917;SDS011;40818;50.562;7.454;2022-11-15T20:32:10;2.42;;;0.50;;
54917;SDS011;40818;50.562;7.454;2022-11-15T20:37:13;6.60;;;0.50;;
54917;SDS011;40818;50.562;7.454;2022-11-15T20:42:19;2.17;;;0.50;;
54917;SDS011;40818;50.562;7.454;2022-11-15T20:47:25;3.75;;;0.52;;
54917;SDS011;40818;50.562;7.454;2022-11-15T20:52:28;6.95;;;0.60;;
54917;SDS011;40818;50.562;7.454;2022-11-15T20:57:32;2.95;;;0.50;;
54917;SDS011;40818;50.562;7.454;2022-11-15T21:02:38;3.42;;;0.50;;
54917;SDS011;40818;50.562;7.454;2022-11-15T21:07:41;3.30;;;0.50;;
54917;SDS011;40818;50.562;7.454;2022-11-15T21:12:44;3.45;;;0.60;;
54917;SDS011;40818;50.562;7.454;2022-11-15T21:17:51;2.72;;;0.60;;
54917;SDS011;40818;50.562;7.454;2022-11-15T21:22:54;1.65;;;0.50;;
54917;SDS011;40818;50.562;7.454;2022-11-15T21:27:57;1.88;;;0.65;;
54917;SDS011;40818;50.562;7.454;2022-11-15T21:33:03;1.60;;;0.60;;
54917;SDS011;40818;50.562;7.454;2022-11-15T21:38:07;2.60;;;0.60;;
54917;SDS011;40818;50.562;7.454;2022-11-15T21:43:10;2.20;;;0.63;;
54917;SDS011;40818;50.562;7.454;2022-11-15T21:48:16;3.50;;;0.70;;
54917;SDS011;40818;50.562;7.454;2022-11-15T21:53:20;4.07;;;0.70;;
54917;SDS011;40818;50.562;7.454;2022-11-15T21:58:23;4.07;;;0.82;;
54917;SDS011;40818;50.562;7.454;2022-11-15T22:03:30;2.95;;;0.80;;
54917;SDS011;40818;50.562;7.454;2022-11-15T22:08:34;3.80;;;0.75;;
54917;SDS011;40818;50.562;7.454;2022-11-15T22:13:37;2.47;;;0.77;;
54917;SDS011;40818;50.562;7.454;2022-11-15T22:18:43;3.22;;;0.80;;
54917;SDS011;40818;50.562;7.454;2022-11-15T22:23:47;2.30;;;0.80;;
54917;SDS011;40818;50.562;7.454;2022-11-15T22:28:50;5.78;;;0.90;;
54917;SDS011;40818;50.562;7.454;2022-11-15T22:33:57;4.40;;;1.10;;
54917;SDS011;40818;50.562;7.454;2022-11-15T22:39:00;3.88;;;0.80;;
54917;SDS011;40818;50.562;7.454;2022-11-15T22:44:04;4.47;;;1.00;;
54917;SDS011;40818;50.562;7.454;2022-11-15T22:49:10;4.63;;;0.90;;
54917;SDS011;40818;50.562;7.454;2022-11-15T22:54:14;2.67;;;0.80;;
54917;SDS011;40818;50.562;7.454;2022-11-15T22:59:17;3.90;;;0.90;;
54917;SDS011;40818;50.562;7.454;2022-11-15T23:04:23;4.07;;;1.08;;
54917;SDS011;40818;50.562;7.454;2022-11-15T23:09:27;4.05;;;0.90;;
54917;SDS011;40818;50.562;7.454;2022-11-15T23:14:30;2.85;;;0.82;;
54917;SDS011;40818;50.562;7.454;2022-11-15T23:19:36;3.28;;;1.10;;
54917;SDS011;40818;50.562;7.454;2022-11-15T23:24:40;4.10;;;0.90;;
54917;SDS011;40818;50.562;7.454;2022-11-15T23:29:43;6.28;;;1.00;;
54917;SDS011;40818;50.562;7.454;2022-11-15T23:35:02;4.30;;;1.00;;
54917;SDS011;40818;50.562;7.454;2022-11-15T23:40:07;5.10;;;0.90;;
54917;SDS011;40818;50.562;7.454;2022-11-15T23:45:12;6.28;;;0.95;;
54917;SDS011;40818;50.562;7.454;2022-11-15T23:50:18;3.10;;;1.00;;
54917;SDS011;40818;50.562;7.454;2022-11-15T23:55:22;2.58;;;1.00;;
